Black Rock Airport


Codes: FABP/
Name: Black Rock Airport
City: Santoy
Country: South Africa
Elevation: 3450 ft.

Photos at Black Rock Airport


   Photos courtesy of SpottingLog. You can add your own sightings and photos by signing up for a free trial today.



No photos found.

Weather at Black Rock Airport


Time (UTC)DescriptionTempratureWindCloud coverageVisibilityPressureHumidity
16-Jun-2024 03:00Clear Sky11°C7 mph, E9%10000m1023hPa37%
16-Jun-2024 06:00Few Clouds10°C4 mph, NE20%10000m1024hPa38%
16-Jun-2024 09:00Broken Clouds19°C11 mph, NE76%10000m1023hPa20%
16-Jun-2024 12:00Scattered Clouds22°C11 mph, N42%10000m1019hPa16%
16-Jun-2024 15:00Clear Sky21°C9 mph, N2%10000m1019hPa17%
16-Jun-2024 18:00Clear Sky15°C7 mph, NE2%10000m1021hPa25%
16-Jun-2024 21:00Clear Sky13°C9 mph, NE0%10000m1021hPa32%
17-Jun-2024 00:00Clear Sky11°C9 mph, NE0%10000m1021hPa38%
17-Jun-2024 03:00Clear Sky10°C7 mph, NE3%10000m1021hPa58%
17-Jun-2024 06:00Clear Sky11°C13 mph, NE3%10000m1022hPa69%
17-Jun-2024 09:00Clear Sky20°C25 mph, N0%10000m1020hPa41%
17-Jun-2024 12:00Clear Sky23°C22 mph, NW0%10000m1016hPa25%
17-Jun-2024 15:00Clear Sky22°C16 mph, NW0%10000m1015hPa20%
17-Jun-2024 18:00Clear Sky16°C9 mph, N0%10000m1017hPa27%
17-Jun-2024 21:00Clear Sky13°C9 mph, W0%10000m1018hPa31%
18-Jun-2024 00:00Clear Sky10°C4 mph, S0%10000m1018hPa33%
18-Jun-2024 03:00Clear Sky9°C7 mph, S0%10000m1018hPa35%
18-Jun-2024 06:00Clear Sky10°C4 mph, SE0%10000m1020hPa33%
18-Jun-2024 09:00Clear Sky18°C0 mph, SW1%10000m1020hPa19%
18-Jun-2024 12:00Clear Sky22°C7 mph, NW1%10000m1016hPa13%
18-Jun-2024 15:00Clear Sky20°C9 mph, W0%10000m1016hPa15%
18-Jun-2024 18:00Clear Sky14°C7 mph, SW8%10000m1019hPa24%
18-Jun-2024 21:00Few Clouds11°C4 mph, SW13%10000m1019hPa32%
19-Jun-2024 00:00Clear Sky10°C7 mph, SE8%10000m1019hPa35%
19-Jun-2024 03:00Few Clouds9°C4 mph, SE12%10000m1019hPa39%
19-Jun-2024 06:00Clear Sky10°C2 mph, SE7%10000m1021hPa33%
19-Jun-2024 09:00Clear Sky19°C2 mph, NE0%10000m1020hPa18%
19-Jun-2024 12:00Clear Sky23°C7 mph, N0%10000m1016hPa13%
19-Jun-2024 15:00Clear Sky21°C4 mph, N0%10000m1016hPa16%
19-Jun-2024 18:00Clear Sky15°C4 mph, NE0%10000m1018hPa21%
19-Jun-2024 21:00Clear Sky14°C7 mph, NE0%10000m1019hPa24%
20-Jun-2024 00:00Clear Sky11°C7 mph, NE0%10000m1019hPa28%
20-Jun-2024 03:00Clear Sky10°C9 mph, NE0%10000m1020hPa29%
20-Jun-2024 06:00Clear Sky11°C9 mph, NE0%10000m1021hPa28%
20-Jun-2024 09:00Clear Sky21°C18 mph, N0%10000m1020hPa17%
20-Jun-2024 12:00Clear Sky26°C22 mph, N0%10000m1015hPa14%
20-Jun-2024 15:00Clear Sky25°C16 mph, N1%10000m1015hPa14%
20-Jun-2024 18:00Clear Sky18°C9 mph, N2%10000m1017hPa22%
20-Jun-2024 21:00Few Clouds16°C11 mph, N13%10000m1018hPa25%
21-Jun-2024 00:00Scattered Clouds15°C18 mph, NE32%10000m1018hPa28%